sensor_id;sensor_type;location;lat;lon;timestamp;pressure;altitude;pressure_sealevel;temperature;humidity
46583;BME280;32309;48.858;8.252;2023-03-13T00:01:25;99785.81;;;9.68;70.63
46583;BME280;32309;48.858;8.252;2023-03-13T00:03:31;99799.47;;;9.70;70.32
46583;BME280;32309;48.858;8.252;2023-03-13T00:05:34;99793.38;;;9.71;70.45
46583;BME280;32309;48.858;8.252;2023-03-13T00:07:34;99789.09;;;9.70;70.92
46583;BME280;32309;48.858;8.252;2023-03-13T00:09:34;99787.28;;;9.72;70.38
46583;BME280;32309;48.858;8.252;2023-03-13T00:11:35;99785.50;;;9.72;70.12
46583;BME280;32309;48.858;8.252;2023-03-13T00:13:35;99776.91;;;9.72;70.38
46583;BME280;32309;48.858;8.252;2023-03-13T00:15:36;99779.41;;;9.73;70.54
46583;BME280;32309;48.858;8.252;2023-03-13T00:17:36;99773.31;;;9.74;70.39
46583;BME280;32309;48.858;8.252;2023-03-13T00:19:36;99771.53;;;9.75;70.31
46583;BME280;32309;48.858;8.252;2023-03-13T00:21:37;99777.47;;;9.77;69.62
46583;BME280;32309;48.858;8.252;2023-03-13T00:23:37;99768.78;;;9.78;69.86
46583;BME280;32309;48.858;8.252;2023-03-13T00:25:37;99767.94;;;9.77;69.84
46583;BME280;32309;48.858;8.252;2023-03-13T00:27:38;99755.91;;;9.76;70.58
46583;BME280;32309;48.858;8.252;2023-03-13T00:29:38;99752.50;;;9.76;70.55
46583;BME280;32309;48.858;8.252;2023-03-13T00:31:38;99752.50;;;9.76;70.61
46583;BME280;32309;48.858;8.252;2023-03-13T00:33:40;99754.19;;;9.77;70.52
46583;BME280;32309;48.858;8.252;2023-03-13T00:35:42;99746.41;;;9.77;70.18
46583;BME280;32309;48.858;8.252;2023-03-13T00:37:42;99748.06;;;9.78;70.26
46583;BME280;32309;48.858;8.252;2023-03-13T00:39:42;99729.13;;;9.77;70.01
46583;BME280;32309;48.858;8.252;2023-03-13T00:41:43;99735.22;;;9.76;70.42
46583;BME280;32309;48.858;8.252;2023-03-13T00:43:44;99727.44;;;9.76;70.78
46583;BME280;32309;48.858;8.252;2023-03-13T00:45:45;99718.97;;;9.74;70.33
46583;BME280;32309;48.858;8.252;2023-03-13T00:47:45;99717.19;;;9.75;70.38
46583;BME280;32309;48.858;8.252;2023-03-13T00:49:46;99718.97;;;9.74;69.87
46583;BME280;32309;48.858;8.252;2023-03-13T00:51:46;99712.03;;;9.75;70.14
46583;BME280;32309;48.858;8.252;2023-03-13T00:53:46;99715.34;;;9.77;70.38
46583;BME280;32309;48.858;8.252;2023-03-13T00:55:51;99707.50;;;9.78;69.90
46583;BME280;32309;48.858;8.252;2023-03-13T00:57:52;99710.06;;;9.78;69.98
46583;BME280;32309;48.858;8.252;2023-03-13T00:59:53;99707.38;;;9.80;69.37
46583;BME280;32309;48.858;8.252;2023-03-13T01:01:53;99699.53;;;9.81;69.52
46583;BME280;32309;48.858;8.252;2023-03-13T01:03:54;99704.69;;;9.81;69.62
46583;BME280;32309;48.858;8.252;2023-03-13T01:05:59;99697.78;;;9.82;69.09
46583;BME280;32309;48.858;8.252;2023-03-13T01:08:01;99694.34;;;9.81;69.90
46583;BME280;32309;48.858;8.252;2023-03-13T01:10:02;99690.94;;;9.81;69.29
46583;BME280;32309;48.858;8.252;2023-03-13T01:12:02;99690.94;;;9.81;69.66
46583;BME280;32309;48.858;8.252;2023-03-13T01:14:04;99691.75;;;9.81;69.09
46583;BME280;32309;48.858;8.252;2023-03-13T01:16:16;99689.06;;;9.83;69.49
46583;BME280;32309;48.858;8.252;2023-03-13T01:18:18;99686.41;;;9.85;69.33
46583;BME280;32309;48.858;8.252;2023-03-13T01:20:18;99676.75;;;9.87;69.00
46583;BME280;32309;48.858;8.252;2023-03-13T01:22:18;99684.44;;;9.88;69.80
46583;BME280;32309;48.858;8.252;2023-03-13T01:24:19;99680.09;;;9.89;69.42
46583;BME280;32309;48.858;8.252;2023-03-13T01:26:19;99674.81;;;9.90;69.86
46583;BME280;32309;48.858;8.252;2023-03-13T01:28:20;99671.22;;;9.93;69.85
46583;BME280;32309;48.858;8.252;2023-03-13T01:30:21;99676.38;;;9.93;69.48
46583;BME280;32309;48.858;8.252;2023-03-13T01:32:22;99658.16;;;9.94;69.69
46583;BME280;32309;48.858;8.252;2023-03-13T01:34:22;99663.13;;;9.97;69.11
46583;BME280;32309;48.858;8.252;2023-03-13T01:36:22;99658.78;;;9.98;69.46
46583;BME280;32309;48.858;8.252;2023-03-13T01:38:23;99644.09;;;9.98;69.56
46583;BME280;32309;48.858;8.252;2023-03-13T01:40:24;99647.41;;;10.01;70.24
46583;BME280;32309;48.858;8.252;2023-03-13T01:42:24;99650.00;;;10.01;71.32
46583;BME280;32309;48.858;8.252;2023-03-13T01:44:25;99643.06;;;10.01;71.10
46583;BME280;32309;48.858;8.252;2023-03-13T01:46:26;99644.72;;;10.02;72.30
46583;BME280;32309;48.858;8.252;2023-03-13T01:48:44;99639.53;;;10.02;72.14
46583;BME280;32309;48.858;8.252;2023-03-13T01:50:48;99645.44;;;10.04;72.58
46583;BME280;32309;48.858;8.252;2023-03-13T01:52:48;99646.47;;;10.02;73.83
46583;BME280;32309;48.858;8.252;2023-03-13T01:54:49;99637.88;;;10.01;72.66
46583;BME280;32309;48.858;8.252;2023-03-13T01:56:57;99632.59;;;10.03;74.95
46583;BME280;32309;48.858;8.252;2023-03-13T01:59:02;99629.28;;;10.01;75.20
46583;BME280;32309;48.858;8.252;2023-03-13T02:01:04;99627.63;;;9.99;75.32
46583;BME280;32309;48.858;8.252;2023-03-13T02:03:07;99625.03;;;9.99;74.19
46583;BME280;32309;48.858;8.252;2023-03-13T02:05:10;99620.78;;;9.98;76.03
46583;BME280;32309;48.858;8.252;2023-03-13T02:07:15;99617.47;;;9.96;75.23
46583;BME280;32309;48.858;8.252;2023-03-13T02:09:20;99623.59;;;9.95;76.50
46583;BME280;32309;48.858;8.252;2023-03-13T02:13:42;99616.94;;;9.91;77.20
46583;BME280;32309;48.858;8.252;2023-03-13T02:15:43;99611.88;;;9.90;78.72
46583;BME280;32309;48.858;8.252;2023-03-13T02:17:45;99613.63;;;9.89;78.58
46583;BME280;32309;48.858;8.252;2023-03-13T02:19:48;99609.38;;;9.88;78.39
46583;BME280;32309;48.858;8.252;2023-03-13T02:24:26;99607.00;;;9.85;78.28
46583;BME280;32309;48.858;8.252;2023-03-13T02:26:34;99599.31;;;9.83;79.47
46583;BME280;32309;48.858;8.252;2023-03-13T02:28:35;99600.25;;;9.82;80.49
46583;BME280;32309;48.858;8.252;2023-03-13T02:30:38;99596.91;;;9.80;80.86
46583;BME280;32309;48.858;8.252;2023-03-13T02:35:37;99580.56;;;9.80;80.73
46583;BME280;32309;48.858;8.252;2023-03-13T02:37:37;99573.72;;;9.79;80.82
46583;BME280;32309;48.858;8.252;2023-03-13T02:39:42;99555.72;;;9.77;82.01
46583;BME280;32309;48.858;8.252;2023-03-13T02:41:45;99547.97;;;9.77;81.56
46583;BME280;32309;48.858;8.252;2023-03-13T02:43:46;99556.47;;;9.79;82.13
46583;BME280;32309;48.858;8.252;2023-03-13T02:45:59;99553.78;;;9.81;81.26
46583;BME280;32309;48.858;8.252;2023-03-13T02:48:04;99555.31;;;9.83;82.34
46583;BME280;32309;48.858;8.252;2023-03-13T02:50:04;99548.28;;;9.86;82.49
46583;BME280;32309;48.858;8.252;2023-03-13T02:52:09;99551.38;;;9.91;79.64
46583;BME280;32309;48.858;8.252;2023-03-13T02:54:11;99549.44;;;9.94;80.71
46583;BME280;32309;48.858;8.252;2023-03-13T02:56:13;99546.03;;;9.94;81.50
46583;BME280;32309;48.858;8.252;2023-03-13T02:58:16;99546.75;;;9.96;81.33
46583;BME280;32309;48.858;8.252;2023-03-13T03:00:16;99536.38;;;9.96;81.79
46583;BME280;32309;48.858;8.252;2023-03-13T03:02:17;99533.59;;;9.99;82.03
46583;BME280;32309;48.858;8.252;2023-03-13T03:04:19;99531.03;;;9.99;81.20
46583;BME280;32309;48.858;8.252;2023-03-13T03:06:20;99523.97;;;10.01;79.67
46583;BME280;32309;48.858;8.252;2023-03-13T03:08:21;99523.84;;;10.03;81.07
46583;BME280;32309;48.858;8.252;2023-03-13T03:10:21;99522.00;;;10.05;82.10
46583;BME280;32309;48.858;8.252;2023-03-13T03:12:21;99523.66;;;10.06;81.78
46583;BME280;32309;48.858;8.252;2023-03-13T03:14:21;99515.78;;;10.07;81.56
46583;BME280;32309;48.858;8.252;2023-03-13T03:16:22;99521.78;;;10.08;81.77
46583;BME280;32309;48.858;8.252;2023-03-13T03:18:22;99521.78;;;10.08;82.90
46583;BME280;32309;48.858;8.252;2023-03-13T03:20:22;99513.84;;;10.11;82.71
46583;BME280;32309;48.858;8.252;2023-03-13T03:22:23;99523.13;;;10.13;82.50
46583;BME280;32309;48.858;8.252;2023-03-13T03:24:23;99513.72;;;10.12;81.35
46583;BME280;32309;48.858;8.252;2023-03-13T03:26:23;99522.41;;;10.11;83.28
46583;BME280;32309;48.858;8.252;2023-03-13T03:28:24;99516.19;;;10.14;82.93
46583;BME280;32309;48.858;8.252;2023-03-13T03:30:24;99508.66;;;10.11;81.17
46583;BME280;32309;48.858;8.252;2023-03-13T03:32:24;99508.44;;;10.14;80.40
46583;BME280;32309;48.858;8.252;2023-03-13T03:34:24;99506.66;;;10.14;80.58
46583;BME280;32309;48.858;8.252;2023-03-13T03:36:25;99509.16;;;10.16;81.44
46583;BME280;32309;48.858;8.252;2023-03-13T03:38:25;99503.97;;;10.16;82.46
46583;BME280;32309;48.858;8.252;2023-03-13T03:40:26;99509.16;;;10.16;81.45
46583;BME280;32309;48.858;8.252;2023-03-13T03:42:27;99501.06;;;10.21;82.64
46583;BME280;32309;48.858;8.252;2023-03-13T03:44:27;99492.38;;;10.22;81.29
46583;BME280;32309;48.858;8.252;2023-03-13T03:46:27;99497.56;;;10.22;80.63
46583;BME280;32309;48.858;8.252;2023-03-13T03:48:28;99501.81;;;10.23;81.71
46583;BME280;32309;48.858;8.252;2023-03-13T03:50:28;99502.41;;;10.26;80.92
46583;BME280;32309;48.858;8.252;2023-03-13T03:52:28;99507.47;;;10.28;81.58
46583;BME280;32309;48.858;8.252;2023-03-13T03:54:29;99496.31;;;10.27;82.44
46583;BME280;32309;48.858;8.252;2023-03-13T03:56:29;99482.19;;;10.31;79.97
46583;BME280;32309;48.858;8.252;2023-03-13T03:58:29;99488.84;;;10.36;79.38
46583;BME280;32309;48.858;8.252;2023-03-13T04:00:29;99475.72;;;10.39;79.75
46583;BME280;32309;48.858;8.252;2023-03-13T04:02:30;99479.00;;;10.41;78.91
46583;BME280;32309;48.858;8.252;2023-03-13T04:04:30;99465.00;;;10.43;80.28
46583;BME280;32309;48.858;8.252;2023-03-13T04:06:30;99479.50;;;10.46;80.02
46583;BME280;32309;48.858;8.252;2023-03-13T04:08:30;99480.25;;;10.48;79.88
46583;BME280;32309;48.858;8.252;2023-03-13T04:10:30;99458.69;;;10.47;79.91
46583;BME280;32309;48.858;8.252;2023-03-13T04:12:31;99457.44;;;10.53;79.29
46583;BME280;32309;48.858;8.252;2023-03-13T04:14:31;99465.09;;;10.55;79.63
46583;BME280;32309;48.858;8.252;2023-03-13T04:16:31;99461.59;;;10.56;79.35
46583;BME280;32309;48.858;8.252;2023-03-13T04:18:32;99452.72;;;10.58;79.32
46583;BME280;32309;48.858;8.252;2023-03-13T04:20:32;99441.44;;;10.59;78.98
46583;BME280;32309;48.858;8.252;2023-03-13T04:22:33;99453.59;;;10.59;80.02
46583;BME280;32309;48.858;8.252;2023-03-13T04:24:33;99452.84;;;10.57;80.28
46583;BME280;32309;48.858;8.252;2023-03-13T04:26:34;99448.50;;;10.57;79.65
46583;BME280;32309;48.858;8.252;2023-03-13T04:28:34;99449.09;;;10.61;79.94
46583;BME280;32309;48.858;8.252;2023-03-13T04:30:34;99458.53;;;10.62;79.37
46583;BME280;32309;48.858;8.252;2023-03-13T04:32:34;99452.53;;;10.61;79.67
46583;BME280;32309;48.858;8.252;2023-03-13T04:34:35;99442.16;;;10.61;80.02
46583;BME280;32309;48.858;8.252;2023-03-13T04:36:35;99451.59;;;10.62;79.79
46583;BME280;32309;48.858;8.252;2023-03-13T04:38:35;99454.28;;;10.61;80.85
46583;BME280;32309;48.858;8.252;2023-03-13T04:40:35;99452.44;;;10.63;79.14
46583;BME280;32309;48.858;8.252;2023-03-13T04:42:36;99437.59;;;10.65;79.83
46583;BME280;32309;48.858;8.252;2023-03-13T04:44:36;99440.19;;;10.65;80.69
46583;BME280;32309;48.858;8.252;2023-03-13T04:46:37;99441.81;;;10.66;79.03
46583;BME280;32309;48.858;8.252;2023-03-13T04:48:37;99448.69;;;10.67;80.42
46583;BME280;32309;48.858;8.252;2023-03-13T04:50:37;99446.81;;;10.69;80.76
46583;BME280;32309;48.858;8.252;2023-03-13T04:52:38;99444.09;;;10.71;80.66
46583;BME280;32309;48.858;8.252;2023-03-13T04:54:38;99442.03;;;10.76;79.81
46583;BME280;32309;48.858;8.252;2023-03-13T04:56:38;99448.03;;;10.76;80.19
46583;BME280;32309;48.858;8.252;2023-03-13T04:58:39;99453.19;;;10.76;80.97
46583;BME280;32309;48.858;8.252;2023-03-13T05:00:39;99455.56;;;10.79;80.33
46583;BME280;32309;48.858;8.252;2023-03-13T05:02:40;99453.81;;;10.80;81.03
46583;BME280;32309;48.858;8.252;2023-03-13T05:04:40;99453.69;;;10.81;82.50
46583;BME280;32309;48.858;8.252;2023-03-13T05:06:40;99465.84;;;10.81;81.25
46583;BME280;32309;48.858;8.252;2023-03-13T05:08:41;99464.88;;;10.82;81.32
46583;BME280;32309;48.858;8.252;2023-03-13T05:10:41;99462.28;;;10.82;80.70
46583;BME280;32309;48.858;8.252;2023-03-13T05:12:42;99474.44;;;10.81;83.45
46583;BME280;32309;48.858;8.252;2023-03-13T05:14:42;99458.28;;;10.78;81.38
46583;BME280;32309;48.858;8.252;2023-03-13T05:16:42;99472.19;;;10.77;82.57
46583;BME280;32309;48.858;8.252;2023-03-13T05:18:43;99462.63;;;10.77;83.23
46583;BME280;32309;48.858;8.252;2023-03-13T05:20:43;99451.53;;;10.75;83.56
46583;BME280;32309;48.858;8.252;2023-03-13T05:22:43;99443.75;;;10.75;81.85
46583;BME280;32309;48.858;8.252;2023-03-13T05:24:43;99451.66;;;10.74;83.69
46583;BME280;32309;48.858;8.252;2023-03-13T05:26:44;99457.69;;;10.74;82.27
46583;BME280;32309;48.858;8.252;2023-03-13T05:28:44;99455.91;;;10.75;82.96
46583;BME280;32309;48.858;8.252;2023-03-13T05:30:44;99451.78;;;10.72;81.83
46583;BME280;32309;48.858;8.252;2023-03-13T05:32:45;99447.09;;;10.77;83.36
46583;BME280;32309;48.858;8.252;2023-03-13T05:34:45;99458.50;;;10.75;82.97
46583;BME280;32309;48.858;8.252;2023-03-13T05:36:45;99439.53;;;10.74;83.86
46583;BME280;32309;48.858;8.252;2023-03-13T05:38:46;99449.91;;;10.74;82.97
46583;BME280;32309;48.858;8.252;2023-03-13T05:40:46;99465.34;;;10.76;83.11
46583;BME280;32309;48.858;8.252;2023-03-13T05:42:46;99466.16;;;10.76;83.69
46583;BME280;32309;48.858;8.252;2023-03-13T05:44:47;99472.28;;;10.75;83.58
46583;BME280;32309;48.858;8.252;2023-03-13T05:46:47;99467.94;;;10.76;82.46
46583;BME280;32309;48.858;8.252;2023-03-13T05:48:48;99473.13;;;10.76;83.38
46583;BME280;32309;48.858;8.252;2023-03-13T05:50:48;99475.59;;;10.77;83.87
46583;BME280;32309;48.858;8.252;2023-03-13T05:52:48;99479.97;;;10.77;83.23
46583;BME280;32309;48.858;8.252;2023-03-13T05:54:48;99477.38;;;10.77;83.09
46583;BME280;32309;48.858;8.252;2023-03-13T05:56:49;99481.72;;;10.76;83.86
46583;BME280;32309;48.858;8.252;2023-03-13T05:58:49;99484.31;;;10.76;84.14
46583;BME280;32309;48.858;8.252;2023-03-13T06:00:49;99487.00;;;10.75;83.00
46583;BME280;32309;48.858;8.252;2023-03-13T06:02:49;99485.97;;;10.77;83.29
46583;BME280;32309;48.858;8.252;2023-03-13T06:04:50;99481.72;;;10.76;83.33
46583;BME280;32309;48.858;8.252;2023-03-13T06:06:50;99467.00;;;10.77;83.79
46583;BME280;32309;48.858;8.252;2023-03-13T06:08:51;99471.22;;;10.78;83.79
46583;BME280;32309;48.858;8.252;2023-03-13T06:10:52;99459.00;;;10.80;84.87
46583;BME280;32309;48.858;8.252;2023-03-13T06:12:53;99460.66;;;10.81;84.01
46583;BME280;32309;48.858;8.252;2023-03-13T06:14:54;99456.28;;;10.81;84.71
46583;BME280;32309;48.858;8.252;2023-03-13T06:16:55;99468.44;;;10.81;83.71
46583;BME280;32309;48.858;8.252;2023-03-13T06:18:55;99463.34;;;10.79;84.18
46583;BME280;32309;48.858;8.252;2023-03-13T06:20:56;99468.53;;;10.79;84.64
46583;BME280;32309;48.858;8.252;2023-03-13T06:22:58;99467.47;;;10.82;83.46
46583;BME280;32309;48.858;8.252;2023-03-13T06:24:58;99475.38;;;10.80;84.80
46583;BME280;32309;48.858;8.252;2023-03-13T06:26:58;99468.63;;;10.78;85.04
46583;BME280;32309;48.858;8.252;2023-03-13T06:28:59;99472.78;;;10.80;85.51
46583;BME280;32309;48.858;8.252;2023-03-13T06:31:00;99478.06;;;10.79;85.13
46583;BME280;32309;48.858;8.252;2023-03-13T06:33:01;99466.91;;;10.78;86.10
46583;BME280;32309;48.858;8.252;2023-03-13T06:35:01;99472.78;;;10.80;84.82
46583;BME280;32309;48.858;8.252;2023-03-13T06:37:03;99474.44;;;10.81;84.91
46583;BME280;32309;48.858;8.252;2023-03-13T06:39:03;99484.00;;;10.81;85.93
46583;BME280;32309;48.858;8.252;2023-03-13T06:41:04;99475.16;;;10.84;85.51
46583;BME280;32309;48.858;8.252;2023-03-13T06:43:06;99467.47;;;10.82;86.26
46583;BME280;32309;48.858;8.252;2023-03-13T06:45:06;99470.06;;;10.82;85.87
46583;BME280;32309;48.858;8.252;2023-03-13T06:47:07;99453.59;;;10.83;85.15
46583;BME280;32309;48.858;8.252;2023-03-13T06:49:07;99468.22;;;10.84;85.84
46583;BME280;32309;48.858;8.252;2023-03-13T06:51:11;99475.06;;;10.85;85.63
46583;BME280;32309;48.858;8.252;2023-03-13T06:53:19;99468.94;;;10.86;85.70
46583;BME280;32309;48.858;8.252;2023-03-13T06:55:19;99461.97;;;10.87;85.71
46583;BME280;32309;48.858;8.252;2023-03-13T06:57:19;99463.41;;;10.91;85.06
46583;BME280;32309;48.858;8.252;2023-03-13T06:59:20;99462.38;;;10.93;85.05
46583;BME280;32309;48.858;8.252;2023-03-13T07:01:20;99457.78;;;10.97;85.05
46583;BME280;32309;48.858;8.252;2023-03-13T07:03:20;99454.34;;;10.96;85.93
46583;BME280;32309;48.858;8.252;2023-03-13T07:05:21;99448.13;;;10.99;85.52
46583;BME280;32309;48.858;8.252;2023-03-13T07:07:21;99440.94;;;11.03;85.65
46583;BME280;32309;48.858;8.252;2023-03-13T07:09:21;99444.16;;;11.06;85.66
46583;BME280;32309;48.858;8.252;2023-03-13T07:11:21;99442.63;;;11.04;85.37
46583;BME280;32309;48.858;8.252;2023-03-13T07:13:22;99449.13;;;11.09;85.64
46583;BME280;32309;48.858;8.252;2023-03-13T07:15:22;99436.88;;;11.11;85.22
46583;BME280;32309;48.858;8.252;2023-03-13T07:17:22;99446.19;;;11.14;85.16
46583;BME280;32309;48.858;8.252;2023-03-13T07:19:23;99440.44;;;11.22;85.36
46583;BME280;32309;48.858;8.252;2023-03-13T07:21:23;99446.56;;;11.21;85.28
46583;BME280;32309;48.858;8.252;2023-03-13T07:23:24;99445.72;;;11.20;85.68
46583;BME280;32309;48.858;8.252;2023-03-13T07:25:25;99431.13;;;11.19;85.81
46583;BME280;32309;48.858;8.252;2023-03-13T07:27:26;99405.06;;;11.21;85.37
46583;BME280;32309;48.858;8.252;2023-03-13T07:29:26;99411.06;;;11.21;85.96
46583;BME280;32309;48.858;8.252;2023-03-13T07:31:26;99418.63;;;11.24;85.39
46583;BME280;32309;48.858;8.252;2023-03-13T07:33:28;99411.44;;;11.28;85.35
46583;BME280;32309;48.858;8.252;2023-03-13T07:35:29;99406.97;;;11.30;84.42
46583;BME280;32309;48.858;8.252;2023-03-13T07:37:29;99418.78;;;11.34;84.60
46583;BME280;32309;48.858;8.252;2023-03-13T07:39:29;99409.81;;;11.38;84.53
46583;BME280;32309;48.858;8.252;2023-03-13T07:41:29;99408.53;;;11.44;84.10
46583;BME280;32309;48.858;8.252;2023-03-13T07:43:30;99414.09;;;11.51;84.79
46583;BME280;32309;48.858;8.252;2023-03-13T07:45:30;99412.81;;;11.56;83.51
46583;BME280;32309;48.858;8.252;2023-03-13T07:47:32;99405.50;;;11.61;83.83
46583;BME280;32309;48.858;8.252;2023-03-13T07:49:33;99403.50;;;11.65;83.62
46583;BME280;32309;48.858;8.252;2023-03-13T07:51:40;99398.91;;;11.69;83.35
46583;BME280;32309;48.858;8.252;2023-03-13T07:53:40;99408.72;;;11.76;83.33
46583;BME280;32309;48.858;8.252;2023-03-13T07:55:40;99395.25;;;11.82;82.69
46583;BME280;32309;48.858;8.252;2023-03-13T07:57:40;99399.97;;;11.89;82.58
46583;BME280;32309;48.858;8.252;2023-03-13T07:59:40;99408.13;;;11.95;82.62
46583;BME280;32309;48.858;8.252;2023-03-13T08:01:41;99405.88;;;12.02;81.96
46583;BME280;32309;48.858;8.252;2023-03-13T08:03:41;99409.94;;;12.06;81.78
46583;BME280;32309;48.858;8.252;2023-03-13T08:05:42;99415.47;;;12.13;81.57
46583;BME280;32309;48.858;8.252;2023-03-13T08:07:45;99407.44;;;12.16;81.27
46583;BME280;32309;48.858;8.252;2023-03-13T08:09:45;99412.28;;;12.21;81.46
46583;BME280;32309;48.858;8.252;2023-03-13T08:11:45;99409.56;;;12.22;80.75
46583;BME280;32309;48.858;8.252;2023-03-13T08:13:47;99411.78;;;12.27;81.35
46583;BME280;32309;48.858;8.252;2023-03-13T08:15:50;99408.00;;;12.31;81.00
46583;BME280;32309;48.858;8.252;2023-03-13T08:17:51;99409.66;;;12.32;80.31
46583;BME280;32309;48.858;8.252;2023-03-13T08:19:51;99409.53;;;12.34;80.82
46583;BME280;32309;48.858;8.252;2023-03-13T08:21:52;99400.91;;;12.33;80.21
46583;BME280;32309;48.858;8.252;2023-03-13T08:23:53;99400.19;;;12.31;80.09
46583;BME280;32309;48.858;8.252;2023-03-13T08:25:54;99402.78;;;12.31;80.36
46583;BME280;32309;48.858;8.252;2023-03-13T08:27:55;99410.72;;;12.29;80.38
46583;BME280;32309;48.858;8.252;2023-03-13T08:29:55;99405.50;;;12.29;79.98
46583;BME280;32309;48.858;8.252;2023-03-13T08:31:55;99402.22;;;12.27;80.08
46583;BME280;32309;48.858;8.252;2023-03-13T08:33:56;99392.78;;;12.26;80.38
46583;BME280;32309;48.858;8.252;2023-03-13T08:35:57;99395.00;;;12.31;80.21
46583;BME280;32309;48.858;8.252;2023-03-13T08:37:57;99395.84;;;12.31;79.87
46583;BME280;32309;48.858;8.252;2023-03-13T08:39:57;99397.59;;;12.31;80.24
46583;BME280;32309;48.858;8.252;2023-03-13T08:41:58;99396.78;;;12.30;79.90
46583;BME280;32309;48.858;8.252;2023-03-13T08:43:58;99391.47;;;12.32;79.61
46583;BME280;32309;48.858;8.252;2023-03-13T08:45:58;99390.53;;;12.33;80.04
46583;BME280;32309;48.858;8.252;2023-03-13T08:47:58;99391.94;;;12.37;79.51
46583;BME280;32309;48.858;8.252;2023-03-13T08:49:59;99382.34;;;12.38;79.56
46583;BME280;32309;48.858;8.252;2023-03-13T08:51:59;99376.06;;;12.40;79.51
46583;BME280;32309;48.858;8.252;2023-03-13T08:54:00;99380.22;;;12.43;79.73
46583;BME280;32309;48.858;8.252;2023-03-13T08:56:01;99375.97;;;12.42;79.42
46583;BME280;32309;48.858;8.252;2023-03-13T08:58:03;99370.28;;;12.48;79.51
46583;BME280;32309;48.858;8.252;2023-03-13T09:00:03;99379.84;;;12.47;79.53
46583;BME280;32309;48.858;8.252;2023-03-13T09:02:07;99372.88;;;12.48;79.20
46583;BME280;32309;48.858;8.252;2023-03-13T09:04:08;99366.47;;;12.52;79.33
46583;BME280;32309;48.858;8.252;2023-03-13T09:06:09;99368.72;;;12.57;79.50
46583;BME280;32309;48.858;8.252;2023-03-13T09:08:10;99363.97;;;12.62;79.13
46583;BME280;32309;48.858;8.252;2023-03-13T09:10:10;99359.13;;;12.69;79.03
46583;BME280;32309;48.858;8.252;2023-03-13T09:12:10;99355.91;;;12.76;79.01
46583;BME280;32309;48.858;8.252;2023-03-13T09:14:11;99345.81;;;12.83;78.72
46583;BME280;32309;48.858;8.252;2023-03-13T09:16:12;99339.72;;;12.94;77.89
46583;BME280;32309;48.858;8.252;2023-03-13T09:18:17;99343.47;;;13.01;77.83
46583;BME280;32309;48.858;8.252;2023-03-13T09:20:18;99343.81;;;13.08;77.57
46583;BME280;32309;48.858;8.252;2023-03-13T09:22:19;99339.16;;;13.11;77.43
46583;BME280;32309;48.858;8.252;2023-03-13T09:24:19;99335.91;;;13.19;77.06
46583;BME280;32309;48.858;8.252;2023-03-13T09:26:19;99340.47;;;13.27;76.87
46583;BME280;32309;48.858;8.252;2023-03-13T09:28:21;99340.22;;;13.30;76.68
46583;BME280;32309;48.858;8.252;2023-03-13T09:30:22;99333.94;;;13.32;75.79
46583;BME280;32309;48.858;8.252;2023-03-13T09:32:22;99337.38;;;13.33;76.17
46583;BME280;32309;48.858;8.252;2023-03-13T09:34:23;99319.34;;;13.41;76.04
46583;BME280;32309;48.858;8.252;2023-03-13T09:36:24;99327.19;;;13.51;75.73
46583;BME280;32309;48.858;8.252;2023-03-13T09:38:25;99335.56;;;13.55;75.64
46583;BME280;32309;48.858;8.252;2023-03-13T09:40:25;99320.53;;;13.58;75.80
46583;BME280;32309;48.858;8.252;2023-03-13T09:42:31;99310.94;;;13.59;74.66
46583;BME280;32309;48.858;8.252;2023-03-13T09:44:43;99319.59;;;13.59;74.59
46583;BME280;32309;48.858;8.252;2023-03-13T09:49:02;99305.41;;;13.83;74.05
46583;BME280;32309;48.858;8.252;2023-03-13T09:51:20;99297.31;;;13.96;74.42
46583;BME280;32309;48.858;8.252;2023-03-13T09:53:39;99294.06;;;14.04;72.63
46583;BME280;32309;48.858;8.252;2023-03-13T09:55:43;99300.38;;;14.11;73.25
46583;BME280;32309;48.858;8.252;2023-03-13T09:57:53;99298.31;;;14.14;72.46
46583;BME280;32309;48.858;8.252;2023-03-13T10:02:03;99296.97;;;14.30;71.85
46583;BME280;32309;48.858;8.252;2023-03-13T10:06:19;99278.31;;;14.35;71.29
46583;BME280;32309;48.858;8.252;2023-03-13T10:08:22;99283.25;;;14.38;70.69
46583;BME280;32309;48.858;8.252;2023-03-13T10:10:37;99282.16;;;14.40;70.46
46583;BME280;32309;48.858;8.252;2023-03-13T10:12:44;99282.44;;;14.47;70.07
46583;BME280;32309;48.858;8.252;2023-03-13T10:17:33;99268.16;;;14.61;69.14
46583;BME280;32309;48.858;8.252;2023-03-13T10:19:39;99269.28;;;14.68;69.13
46583;BME280;32309;48.858;8.252;2023-03-13T10:21:46;99278.16;;;14.75;70.84
46583;BME280;32309;48.858;8.252;2023-03-13T10:24:05;99267.03;;;14.83;69.46
46583;BME280;32309;48.858;8.252;2023-03-13T10:26:14;99269.91;;;14.90;68.60
46583;BME280;32309;48.858;8.252;2023-03-13T10:28:18;99260.03;;;14.93;68.77
46583;BME280;32309;48.858;8.252;2023-03-13T10:30:21;99260.44;;;14.98;68.47
46583;BME280;32309;48.858;8.252;2023-03-13T10:32:22;99264.00;;;14.97;67.88
46583;BME280;32309;48.858;8.252;2023-03-13T10:34:23;99259.88;;;14.95;68.87
46583;BME280;32309;48.858;8.252;2023-03-13T10:36:25;99259.63;;;14.88;68.18
46583;BME280;32309;48.858;8.252;2023-03-13T10:38:45;99252.09;;;14.85;68.41
46583;BME280;32309;48.858;8.252;2023-03-13T10:40:55;99242.75;;;14.83;68.83
46583;BME280;32309;48.858;8.252;2023-03-13T10:42:59;99241.63;;;14.95;68.92
46583;BME280;32309;48.858;8.252;2023-03-13T10:45:02;99227.31;;;15.09;69.78
46583;BME280;32309;48.858;8.252;2023-03-13T10:47:05;99220.25;;;15.19;68.77
46583;BME280;32309;48.858;8.252;2023-03-13T10:49:12;99220.50;;;15.26;68.04
46583;BME280;32309;48.858;8.252;2023-03-13T10:51:19;99204.84;;;15.26;69.41
46583;BME280;32309;48.858;8.252;2023-03-13T10:53:23;99213.78;;;15.23;68.63
46583;BME280;32309;48.858;8.252;2023-03-13T10:55:24;99206.50;;;15.27;68.75
46583;BME280;32309;48.858;8.252;2023-03-13T10:59:33;99196.06;;;15.27;68.38
46583;BME280;32309;48.858;8.252;2023-03-13T11:01:41;99186.28;;;15.29;69.22
46583;BME280;32309;48.858;8.252;2023-03-13T11:03:44;99175.53;;;15.32;68.66
46583;BME280;32309;48.858;8.252;2023-03-13T11:05:55;99178.97;;;15.33;67.25